createdAt,value
2023-03-30T00:00:18.804Z,19.83
2023-03-30T00:02:53.943Z,20.00
2023-03-30T00:05:24.081Z,19.77
2023-03-30T00:07:54.660Z,20.53
2023-03-30T00:10:23.209Z,20.77
2023-03-30T00:12:59.354Z,21.50
2023-03-30T00:15:31.176Z,21.80
2023-03-30T00:18:01.828Z,20.73
2023-03-30T00:20:32.350Z,20.80
2023-03-30T00:23:03.533Z,20.20
2023-03-30T00:25:37.081Z,21.37
2023-03-30T00:28:08.552Z,21.30
2023-03-30T00:30:37.228Z,20.80
2023-03-30T00:33:09.516Z,20.60
2023-03-30T00:35:41.004Z,21.67
2023-03-30T00:38:11.793Z,22.17
2023-03-30T00:40:43.522Z,21.33
2023-03-30T00:43:13.370Z,28.70
2023-03-30T00:45:41.865Z,21.90
2023-03-30T00:48:18.578Z,24.93
2023-03-30T00:50:51.208Z,45.37
2023-03-30T00:53:25.903Z,47.20
2023-03-30T00:55:56.228Z,33.37
2023-03-30T00:58:28.675Z,30.27
2023-03-30T01:01:07.288Z,27.37
2023-03-30T01:03:45.796Z,21.90
2023-03-30T01:06:23.050Z,22.17
2023-03-30T01:08:52.721Z,21.10
2023-03-30T01:11:21.534Z,21.27
2023-03-30T01:14:00.656Z,22.23
2023-03-30T01:16:39.681Z,20.97
2023-03-30T01:19:29.420Z,19.13
2023-03-30T01:22:25.836Z,20.80
2023-03-30T01:28:52.577Z,19.27
2023-03-30T01:31:42.066Z,19.80
2023-03-30T01:34:43.491Z,20.43
2023-03-30T01:37:40.873Z,19.13
2023-03-30T01:40:18.673Z,21.57
2023-03-30T01:42:55.540Z,19.97
2023-03-30T01:45:34.716Z,20.67
2023-03-30T01:48:13.672Z,19.87
2023-03-30T01:50:44.782Z,19.17
2023-03-30T01:53:17.695Z,19.57
2023-03-30T01:55:58.126Z,20.60
2023-03-30T01:58:31.979Z,19.87
2023-03-30T02:01:03.655Z,20.93
2023-03-30T02:03:38.943Z,20.87
2023-03-30T02:06:14.024Z,21.67
2023-03-30T02:08:46.276Z,22.07
2023-03-30T02:11:20.209Z,21.77
2023-03-30T02:13:51.699Z,20.87
2023-03-30T02:16:26.429Z,21.20
2023-03-30T02:18:58.043Z,22.20
2023-03-30T02:21:29.818Z,22.17
2023-03-30T02:24:00.297Z,23.07
2023-03-30T02:26:34.159Z,21.40
2023-03-30T02:29:04.938Z,21.80
2023-03-30T02:31:33.649Z,23.03
2023-03-30T02:34:11.816Z,22.47
2023-03-30T02:37:05.959Z,23.23
2023-03-30T02:39:46.986Z,22.17
2023-03-30T02:43:00.051Z,22.37
2023-03-30T02:45:44.315Z,22.73
2023-03-30T02:48:27.730Z,23.37
2023-03-30T02:51:03.002Z,22.83
2023-03-30T02:54:01.355Z,23.77
2023-03-30T02:56:58.317Z,25.20
2023-03-30T02:59:33.981Z,23.63
2023-03-30T03:02:08.022Z,24.93
2023-03-30T03:04:37.820Z,26.37
2023-03-30T03:07:22.796Z,26.47
2023-03-30T03:09:55.820Z,29.90
2023-03-30T03:12:25.271Z,25.77
2023-03-30T03:14:56.438Z,25.90
2023-03-30T03:17:31.454Z,24.93
2023-03-30T03:20:00.186Z,25.50
2023-03-30T03:22:34.576Z,27.40
2023-03-30T03:25:06.639Z,24.93
2023-03-30T03:27:48.564Z,27.07
2023-03-30T03:30:23.563Z,26.50
2023-03-30T03:33:03.423Z,28.23
2023-03-30T03:35:35.460Z,26.83
2023-03-30T03:38:07.835Z,27.50
2023-03-30T03:40:36.934Z,27.87
2023-03-30T03:43:08.822Z,28.73
2023-03-30T03:45:37.360Z,28.73
2023-03-30T03:48:08.508Z,27.87
2023-03-30T03:50:53.475Z,28.87
2023-03-30T03:53:23.247Z,28.83
2023-03-30T03:55:54.988Z,27.93
2023-03-30T03:58:24.638Z,26.83
2023-03-30T04:01:01.555Z,28.33
2023-03-30T04:03:32.004Z,28.37
2023-03-30T04:06:05.143Z,29.43
2023-03-30T04:08:33.867Z,26.90
2023-03-30T04:11:22.357Z,25.50
2023-03-30T04:14:09.036Z,25.33
2023-03-30T04:17:00.250Z,25.30
2023-03-30T04:19:47.138Z,26.47
2023-03-30T04:22:41.810Z,25.43
2023-03-30T04:25:29.340Z,24.43
2023-03-30T04:28:05.165Z,25.67
2023-03-30T04:31:02.865Z,26.47
2023-03-30T04:33:53.142Z,27.40
2023-03-30T04:36:46.689Z,27.50
2023-03-30T04:39:24.152Z,25.47
2023-03-30T04:41:58.726Z,24.70
2023-03-30T04:44:59.384Z,25.80
2023-03-30T04:47:47.429Z,22.67
2023-03-30T04:50:34.444Z,26.93
2023-03-30T04:53:27.548Z,26.00
2023-03-30T04:56:11.669Z,27.00
2023-03-30T04:58:53.202Z,27.07
2023-03-30T05:01:45.561Z,25.87
2023-03-30T05:04:43.195Z,25.43
2023-03-30T05:07:31.419Z,25.97
2023-03-30T05:10:16.676Z,25.93
2023-03-30T05:13:19.923Z,25.70
2023-03-30T05:16:05.375Z,26.87
2023-03-30T05:19:12.418Z,27.63
2023-03-30T05:22:00.294Z,26.27
2023-03-30T05:24:46.616Z,26.30
2023-03-30T05:27:34.124Z,26.23
2023-03-30T05:30:37.739Z,27.23
2023-03-30T05:33:24.658Z,26.50
2023-03-30T05:36:28.535Z,26.30
2023-03-30T05:39:12.495Z,26.53
2023-03-30T05:42:05.709Z,26.83
2023-03-30T05:44:50.545Z,26.60
2023-03-30T05:47:42.921Z,26.07
2023-03-30T05:50:29.090Z,27.47
2023-03-30T05:53:03.952Z,27.07
2023-03-30T05:55:47.475Z,26.97
2023-03-30T05:58:34.437Z,29.00
2023-03-30T06:01:21.456Z,25.90
2023-03-30T06:03:52.031Z,28.27
2023-03-30T06:06:20.733Z,28.00
2023-03-30T06:08:52.681Z,26.70
2023-03-30T06:11:24.779Z,26.00
2023-03-30T06:14:02.530Z,28.63
2023-03-30T06:16:33.695Z,26.43
2023-03-30T06:19:02.780Z,26.50
2023-03-30T06:21:33.503Z,26.70
2023-03-30T06:24:22.038Z,26.87
2023-03-30T06:26:53.791Z,25.33
2023-03-30T06:29:30.784Z,25.50
2023-03-30T06:32:04.962Z,24.20
2023-03-30T06:34:44.380Z,26.37
2023-03-30T06:37:18.389Z,26.07
2023-03-30T06:39:47.137Z,25.47
2023-03-30T06:42:26.686Z,25.13
2023-03-30T06:45:14.630Z,25.87
2023-03-30T06:47:49.519Z,26.23
2023-03-30T06:50:18.188Z,26.63
2023-03-30T06:52:59.322Z,26.03
2023-03-30T06:55:32.927Z,25.93
2023-03-30T06:58:04.451Z,27.17
2023-03-30T07:00:33.001Z,24.90
2023-03-30T07:03:22.140Z,26.17
2023-03-30T07:06:01.052Z,25.90
2023-03-30T07:08:42.946Z,25.60
2023-03-30T07:11:14.284Z,23.40
2023-03-30T07:13:42.790Z,25.53
2023-03-30T07:16:11.408Z,25.20
2023-03-30T07:18:41.197Z,25.13
2023-03-30T07:21:09.642Z,25.70
2023-03-30T07:23:41.671Z,25.37
2023-03-30T07:26:12.164Z,25.37
2023-03-30T07:28:52.337Z,26.13
2023-03-30T07:31:23.212Z,26.97
2023-03-30T07:34:00.357Z,26.23
2023-03-30T07:36:33.063Z,26.57
2023-03-30T07:39:01.359Z,25.20
2023-03-30T07:41:31.636Z,23.20
2023-03-30T07:44:01.625Z,22.63
2023-03-30T07:46:29.993Z,22.83
2023-03-30T07:49:00.038Z,22.40
2023-03-30T07:51:30.874Z,25.20
2023-03-30T07:54:05.802Z,22.37
2023-03-30T07:56:44.754Z,21.43
2023-03-30T07:59:14.344Z,24.50
2023-03-30T08:01:45.147Z,22.93
2023-03-30T08:04:38.008Z,23.23
2023-03-30T08:07:09.924Z,21.30
2023-03-30T08:09:40.861Z,23.60
2023-03-30T08:12:09.144Z,22.73
2023-03-30T08:14:40.731Z,24.30
2023-03-30T08:17:08.879Z,23.03
2023-03-30T08:19:38.487Z,22.73
2023-03-30T08:22:06.670Z,22.23
2023-03-30T08:24:34.827Z,24.27
2023-03-30T08:27:03.053Z,23.60
2023-03-30T08:29:32.156Z,22.07
2023-03-30T08:32:02.943Z,24.70
2023-03-30T08:34:31.203Z,24.77
2023-03-30T08:37:00.989Z,25.17
2023-03-30T08:39:32.289Z,25.10
2023-03-30T08:42:36.642Z,25.53
2023-03-30T08:45:05.685Z,26.23
2023-03-30T08:47:37.651Z,25.00
2023-03-30T08:50:10.273Z,25.67
2023-03-30T08:52:42.078Z,24.80
2023-03-30T08:55:21.241Z,24.57
2023-03-30T08:57:57.019Z,23.97
2023-03-30T09:00:34.414Z,25.50
2023-03-30T09:03:15.045Z,26.60
2023-03-30T09:05:50.300Z,25.13
2023-03-30T09:08:24.538Z,25.53
2023-03-30T09:11:11.272Z,25.77
2023-03-30T09:13:45.650Z,26.07
2023-03-30T09:16:21.435Z,27.33
2023-03-30T09:18:55.352Z,26.90
2023-03-30T09:21:27.970Z,27.00
2023-03-30T09:23:59.138Z,28.20
2023-03-30T09:26:35.732Z,26.73
2023-03-30T09:29:08.825Z,27.17
2023-03-30T09:31:41.236Z,28.77
2023-03-30T09:34:26.054Z,27.40
2023-03-30T09:36:59.098Z,28.77
2023-03-30T09:39:31.630Z,28.57
2023-03-30T09:42:16.371Z,29.20
2023-03-30T09:44:49.290Z,29.00
2023-03-30T09:47:26.373Z,30.97
2023-03-30T09:49:59.780Z,28.87
2023-03-30T09:52:30.666Z,30.10
2023-03-30T09:55:34.355Z,29.80
2023-03-30T09:58:44.287Z,30.20
2023-03-30T10:01:48.565Z,32.23
2023-03-30T10:05:13.699Z,31.47
2023-03-30T10:07:49.961Z,28.80
2023-03-30T10:13:43.533Z,30.53
2023-03-30T10:16:44.645Z,30.30
2023-03-30T10:19:33.556Z,26.93
2023-03-30T10:22:31.685Z,25.00
2023-03-30T10:25:51.561Z,28.43
2023-03-30T10:31:36.860Z,29.70
2023-03-30T10:34:27.098Z,29.20
2023-03-30T10:37:14.209Z,25.93
2023-03-30T10:40:13.382Z,26.90
2023-03-30T10:42:57.788Z,27.10
2023-03-30T10:45:49.263Z,27.10
2023-03-30T10:48:55.107Z,25.73
2023-03-30T10:51:54.318Z,25.87
2023-03-30T10:54:40.609Z,22.70
2023-03-30T10:57:43.822Z,24.30
2023-03-30T11:00:57.875Z,24.67
2023-03-30T11:03:35.402Z,23.70
2023-03-30T11:06:33.687Z,24.13
2023-03-30T11:09:28.348Z,22.77
2023-03-30T11:12:42.737Z,21.80
2023-03-30T11:15:30.947Z,19.60
2023-03-30T11:18:28.986Z,19.03
2023-03-30T11:21:18.460Z,18.37
2023-03-30T11:24:09.105Z,19.10
2023-03-30T11:27:05.253Z,16.83
2023-03-30T11:30:05.897Z,16.53
2023-03-30T11:32:45.149Z,17.87
2023-03-30T11:35:23.453Z,20.40
2023-03-30T11:37:55.505Z,17.20
2023-03-30T11:40:34.338Z,16.73
2023-03-30T11:43:15.602Z,16.73
2023-03-30T11:46:16.092Z,16.10
2023-03-30T11:49:26.478Z,17.80
2023-03-30T11:59:17.669Z,17.13
2023-03-30T12:02:19.308Z,18.23
2023-03-30T12:05:09.747Z,16.93
2023-03-30T12:11:23.769Z,16.27
2023-03-30T12:14:15.581Z,16.23
2023-03-30T12:17:02.362Z,16.87
2023-03-30T12:20:07.273Z,16.80
2023-03-30T12:23:08.851Z,16.93
2023-03-30T12:26:24.693Z,18.00
2023-03-30T12:30:00.950Z,17.37
2023-03-30T12:32:38.532Z,17.40
2023-03-30T12:35:51.348Z,18.70
2023-03-30T12:38:47.154Z,18.43
2023-03-30T12:41:40.932Z,17.90
2023-03-30T12:44:38.352Z,18.73
2023-03-30T12:47:47.436Z,18.47
2023-03-30T12:50:42.013Z,19.60
2023-03-30T12:53:45.085Z,18.37
2023-03-30T12:56:49.092Z,19.90
2023-03-30T12:59:43.256Z,19.13
2023-03-30T13:02:54.006Z,20.37
2023-03-30T13:05:55.440Z,19.00
2023-03-30T13:08:58.156Z,17.40
2023-03-30T13:15:04.281Z,19.50
2023-03-30T13:18:40.916Z,18.90
2023-03-30T13:21:43.261Z,20.10
2023-03-30T13:24:49.929Z,19.07
2023-03-30T13:27:41.762Z,18.67
2023-03-30T13:30:34.742Z,18.90
2023-03-30T13:33:27.158Z,18.03
2023-03-30T13:36:08.061Z,18.87
2023-03-30T13:39:16.504Z,18.27
2023-03-30T13:42:37.310Z,19.07
2023-03-30T13:45:42.624Z,18.40
2023-03-30T13:48:34.231Z,18.13
2023-03-30T13:51:37.585Z,18.00
2023-03-30T13:54:18.457Z,17.90
2023-03-30T13:56:59.729Z,19.10
2023-03-30T14:00:00.399Z,18.60
2023-03-30T14:02:52.365Z,17.80
2023-03-30T14:08:57.835Z,18.53
2023-03-30T14:11:50.699Z,18.63
2023-03-30T14:14:30.731Z,18.00
2023-03-30T14:17:35.122Z,19.23
2023-03-30T14:20:21.415Z,18.20
2023-03-30T14:23:11.845Z,17.10
2023-03-30T14:25:58.128Z,18.40
2023-03-30T14:29:06.231Z,17.43
2023-03-30T14:32:07.404Z,19.00
2023-03-30T14:34:52.417Z,17.80
2023-03-30T14:37:38.077Z,17.93
2023-03-30T14:40:16.806Z,18.20
2023-03-30T14:42:46.035Z,17.30
2023-03-30T14:45:18.076Z,17.07
2023-03-30T14:47:48.012Z,17.57
2023-03-30T14:50:20.382Z,18.50
2023-03-30T14:52:49.285Z,16.60
2023-03-30T14:55:24.574Z,17.03
2023-03-30T14:57:53.912Z,16.47
2023-03-30T15:00:25.772Z,18.87
2023-03-30T15:02:57.736Z,17.27
2023-03-30T15:05:55.004Z,17.20
2023-03-30T15:08:34.209Z,17.33
2023-03-30T15:11:08.130Z,17.67
2023-03-30T15:13:50.258Z,17.20
2023-03-30T15:16:23.658Z,17.60
2023-03-30T15:18:53.598Z,17.40
2023-03-30T15:21:23.988Z,16.43
2023-03-30T15:23:52.776Z,17.33
2023-03-30T15:26:22.194Z,16.97
2023-03-30T15:28:54.787Z,16.60
2023-03-30T15:31:24.561Z,16.40
2023-03-30T15:33:54.757Z,16.77
2023-03-30T15:36:26.672Z,17.03
2023-03-30T15:38:56.535Z,16.77
2023-03-30T15:41:43.843Z,16.53
2023-03-30T15:44:14.531Z,17.50
2023-03-30T15:46:43.295Z,17.13
2023-03-30T15:49:41.638Z,16.90
2023-03-30T15:52:19.451Z,14.83
2023-03-30T15:54:52.630Z,15.70
2023-03-30T15:57:25.173Z,16.67
2023-03-30T15:59:57.865Z,16.90
2023-03-30T16:02:43.576Z,16.97
2023-03-30T16:05:19.426Z,18.03
2023-03-30T16:07:50.274Z,18.30
2023-03-30T16:10:21.998Z,17.93
2023-03-30T16:12:50.365Z,16.43
2023-03-30T16:15:23.545Z,16.27
2023-03-30T16:17:52.443Z,16.47
2023-03-30T16:20:22.510Z,17.60
2023-03-30T16:22:53.155Z,16.43
2023-03-30T16:25:31.240Z,16.87
2023-03-30T16:28:18.344Z,16.00
2023-03-30T16:30:49.615Z,16.47
2023-03-30T16:33:18.107Z,17.10
2023-03-30T16:35:46.738Z,16.33
2023-03-30T16:38:18.688Z,15.40
2023-03-30T16:40:51.579Z,16.43
2023-03-30T16:43:20.024Z,15.13
2023-03-30T16:45:48.521Z,14.67
2023-03-30T16:48:19.174Z,16.07
2023-03-30T16:50:51.060Z,14.90
2023-03-30T16:53:21.350Z,13.90
2023-03-30T16:55:55.319Z,15.20
2023-03-30T16:58:26.708Z,16.20
2023-03-30T17:01:02.997Z,16.13
2023-03-30T17:03:32.250Z,13.90
2023-03-30T17:06:00.704Z,15.80
2023-03-30T17:08:31.237Z,15.30
2023-03-30T17:11:03.797Z,15.00
2023-03-30T17:13:33.203Z,14.23
2023-03-30T17:16:02.983Z,15.07
2023-03-30T17:18:34.339Z,14.13
2023-03-30T17:21:03.833Z,13.60
2023-03-30T17:23:34.840Z,14.27
2023-03-30T17:26:03.865Z,13.57
2023-03-30T17:28:34.010Z,14.07
2023-03-30T17:31:04.593Z,14.73
2023-03-30T17:33:36.326Z,15.20
2023-03-30T17:36:08.276Z,14.17
2023-03-30T17:38:38.255Z,14.73
2023-03-30T17:41:10.258Z,14.37
2023-03-30T17:43:43.580Z,15.10
2023-03-30T17:46:22.749Z,13.90
2023-03-30T17:48:53.822Z,14.20
2023-03-30T17:51:32.483Z,15.20
2023-03-30T17:54:12.604Z,14.70
2023-03-30T17:56:41.305Z,15.60
2023-03-30T17:59:16.615Z,15.50
2023-03-30T18:01:51.241Z,14.53
2023-03-30T18:04:20.219Z,14.17
2023-03-30T18:06:49.406Z,15.30
2023-03-30T18:09:20.613Z,14.73
2023-03-30T18:19:04.330Z,14.30
2023-03-30T18:21:41.575Z,13.40
2023-03-30T18:24:18.477Z,13.97
2023-03-30T18:27:16.230Z,15.10
2023-03-30T18:30:22.903Z,14.40
2023-03-30T18:32:51.917Z,13.73
2023-03-30T18:35:23.586Z,14.60
2023-03-30T18:37:54.794Z,15.00
2023-03-30T18:40:27.272Z,14.13
2023-03-30T18:46:33.057Z,14.20
2023-03-30T18:53:57.004Z,14.13
2023-03-30T18:56:27.390Z,15.00
2023-03-30T18:59:40.970Z,13.87
2023-03-30T19:03:33.891Z,12.60
2023-03-30T19:06:05.369Z,13.83
2023-03-30T19:08:34.069Z,14.70
2023-03-30T19:11:09.060Z,14.80
2023-03-30T19:13:45.631Z,13.93
2023-03-30T19:16:26.038Z,14.03
2023-03-30T19:23:04.955Z,14.03
2023-03-30T19:25:44.700Z,14.70
2023-03-30T19:28:30.927Z,14.07
2023-03-30T19:31:22.928Z,16.03
2023-03-30T19:33:51.406Z,14.57
2023-03-30T19:36:38.707Z,15.23
2023-03-30T19:39:08.903Z,14.23
2023-03-30T19:41:37.579Z,14.83
2023-03-30T19:44:06.494Z,14.50
2023-03-30T19:46:40.252Z,14.00
2023-03-30T19:49:08.855Z,15.10
2023-03-30T19:51:41.354Z,14.03
2023-03-30T19:54:17.339Z,14.20
2023-03-30T19:56:47.786Z,15.47
2023-03-30T19:59:22.829Z,15.43
2023-03-30T20:01:51.776Z,14.43
2023-03-30T20:04:20.711Z,15.73
2023-03-30T20:06:49.244Z,16.77
2023-03-30T20:09:24.416Z,15.80
2023-03-30T20:11:56.627Z,18.37
2023-03-30T20:14:40.155Z,17.23
2023-03-30T20:17:12.023Z,17.47
2023-03-30T20:19:41.070Z,17.00
2023-03-30T20:22:21.796Z,15.70
2023-03-30T20:24:51.806Z,15.80
2023-03-30T20:27:21.698Z,15.87
2023-03-30T20:29:50.111Z,15.50
2023-03-30T20:32:21.868Z,15.83
2023-03-30T20:34:50.338Z,16.37
2023-03-30T20:37:20.057Z,16.30
2023-03-30T20:39:49.869Z,15.50
2023-03-30T20:42:28.333Z,14.90
2023-03-30T20:44:58.181Z,15.67
2023-03-30T20:47:30.555Z,15.63
2023-03-30T20:50:00.863Z,15.27
2023-03-30T20:52:29.521Z,15.40
2023-03-30T20:54:57.828Z,15.07
2023-03-30T20:57:27.884Z,15.00
2023-03-30T20:59:56.549Z,15.87
2023-03-30T21:02:24.887Z,15.17
2023-03-30T21:04:57.430Z,16.60
2023-03-30T21:07:27.426Z,17.23
2023-03-30T21:09:55.825Z,15.60
2023-03-30T21:12:24.045Z,16.73
2023-03-30T21:14:53.910Z,17.00
2023-03-30T21:17:22.110Z,18.50
2023-03-30T21:19:50.484Z,19.10
2023-03-30T21:22:19.098Z,16.37
2023-03-30T21:24:47.439Z,15.57
2023-03-30T21:27:15.769Z,15.53
2023-03-30T21:29:44.208Z,15.87
2023-03-30T21:32:14.266Z,15.70
2023-03-30T21:34:42.585Z,16.50
2023-03-30T21:37:10.998Z,16.60
2023-03-30T21:39:39.667Z,15.80
2023-03-30T21:42:08.172Z,16.50
2023-03-30T21:44:37.402Z,15.47
2023-03-30T21:47:05.794Z,14.67
2023-03-30T21:49:37.243Z,15.60
2023-03-30T21:52:05.605Z,15.30
2023-03-30T21:54:34.192Z,17.17
2023-03-30T21:57:02.745Z,15.50
2023-03-30T21:59:31.169Z,16.73
2023-03-30T22:01:59.613Z,16.63
2023-03-30T22:04:27.976Z,17.33
2023-03-30T22:06:57.768Z,18.57
2023-03-30T22:09:26.152Z,18.97
2023-03-30T22:11:55.493Z,16.07
2023-03-30T22:14:24.051Z,18.33
2023-03-30T22:16:52.351Z,17.77
2023-03-30T22:19:22.833Z,16.87
2023-03-30T22:21:51.999Z,16.57
2023-03-30T22:24:21.968Z,15.60
2023-03-30T22:26:50.340Z,17.30
2023-03-30T22:29:20.921Z,16.37
2023-03-30T22:31:51.433Z,14.17
2023-03-30T22:34:19.715Z,15.50
2023-03-30T22:36:48.010Z,16.20
2023-03-30T22:39:16.752Z,16.07
2023-03-30T22:41:47.216Z,17.77
2023-03-30T22:44:17.777Z,16.40
2023-03-30T22:46:46.020Z,16.67
2023-03-30T22:49:14.283Z,16.00
2023-03-30T22:51:51.850Z,17.33
2023-03-30T22:54:22.528Z,15.23
2023-03-30T22:56:52.516Z,15.57
2023-03-30T22:59:20.863Z,15.43
2023-03-30T23:01:49.384Z,14.80
2023-03-30T23:04:18.741Z,15.47
2023-03-30T23:06:48.020Z,15.00
2023-03-30T23:09:16.344Z,14.40
2023-03-30T23:11:45.592Z,17.13
2023-03-30T23:14:15.749Z,14.97
2023-03-30T23:16:44.169Z,14.13
2023-03-30T23:19:12.580Z,15.97
2023-03-30T23:21:40.989Z,14.90
2023-03-30T23:24:12.202Z,16.03
2023-03-30T23:26:40.506Z,15.10
2023-03-30T23:29:08.737Z,14.70
2023-03-30T23:31:38.443Z,15.03
2023-03-30T23:34:10.186Z,15.83
2023-03-30T23:36:38.462Z,16.40
2023-03-30T23:39:06.621Z,15.70
2023-03-30T23:41:34.887Z,15.53
2023-03-30T23:44:03.347Z,16.50
2023-03-30T23:46:31.901Z,14.63
2023-03-30T23:49:01.894Z,14.73
2023-03-30T23:51:30.510Z,14.90
2023-03-30T23:54:06.062Z,14.80
2023-03-30T23:56:35.227Z,13.97
2023-03-30T23:59:03.411Z,14.40
